sensor_id;sensor_type;location;lat;lon;timestamp;P1;durP1;ratioP1;P2;durP2;ratioP2
6566;SDS011;3317;43.994;22.878;2023-07-29T00:01:37;4.10;;;3.70;;
6566;SDS011;3317;43.994;22.878;2023-07-29T00:04:06;6.17;;;3.73;;
6566;SDS011;3317;43.994;22.878;2023-07-29T00:06:34;4.53;;;3.80;;
6566;SDS011;3317;43.994;22.878;2023-07-29T00:09:01;5.00;;;3.67;;
6566;SDS011;3317;43.994;22.878;2023-07-29T00:11:28;5.77;;;3.30;;
6566;SDS011;3317;43.994;22.878;2023-07-29T00:13:57;4.67;;;3.70;;
6566;SDS011;3317;43.994;22.878;2023-07-29T00:16:23;5.90;;;3.60;;
6566;SDS011;3317;43.994;22.878;2023-07-29T00:18:51;5.40;;;3.80;;
6566;SDS011;3317;43.994;22.878;2023-07-29T00:21:18;5.30;;;3.73;;
6566;SDS011;3317;43.994;22.878;2023-07-29T00:23:45;4.30;;;3.53;;
6566;SDS011;3317;43.994;22.878;2023-07-29T00:26:12;4.10;;;3.70;;
6566;SDS011;3317;43.994;22.878;2023-07-29T00:28:39;4.00;;;3.43;;
6566;SDS011;3317;43.994;22.878;2023-07-29T00:31:07;5.13;;;4.00;;
6566;SDS011;3317;43.994;22.878;2023-07-29T00:33:34;4.13;;;3.50;;
6566;SDS011;3317;43.994;22.878;2023-07-29T00:36:01;4.73;;;3.60;;
6566;SDS011;3317;43.994;22.878;2023-07-29T00:38:28;4.20;;;3.60;;
6566;SDS011;3317;43.994;22.878;2023-07-29T00:40:55;4.70;;;3.43;;
6566;SDS011;3317;43.994;22.878;2023-07-29T00:43:23;4.00;;;3.50;;
6566;SDS011;3317;43.994;22.878;2023-07-29T00:45:50;4.00;;;3.60;;
6566;SDS011;3317;43.994;22.878;2023-07-29T00:48:19;3.50;;;3.13;;
6566;SDS011;3317;43.994;22.878;2023-07-29T00:50:46;3.70;;;3.20;;
6566;SDS011;3317;43.994;22.878;2023-07-29T00:53:13;4.00;;;3.57;;
6566;SDS011;3317;43.994;22.878;2023-07-29T00:55:40;4.97;;;3.60;;
6566;SDS011;3317;43.994;22.878;2023-07-29T00:58:08;4.20;;;3.60;;
6566;SDS011;3317;43.994;22.878;2023-07-29T01:00:35;5.20;;;3.70;;
6566;SDS011;3317;43.994;22.878;2023-07-29T01:03:03;5.07;;;3.43;;
6566;SDS011;3317;43.994;22.878;2023-07-29T01:05:34;4.50;;;3.40;;
6566;SDS011;3317;43.994;22.878;2023-07-29T01:08:12;4.30;;;3.90;;
6566;SDS011;3317;43.994;22.878;2023-07-29T01:10:51;4.70;;;3.53;;
6566;SDS011;3317;43.994;22.878;2023-07-29T01:13:27;3.63;;;3.30;;
6566;SDS011;3317;43.994;22.878;2023-07-29T01:16:04;4.33;;;3.63;;
6566;SDS011;3317;43.994;22.878;2023-07-29T01:18:36;3.67;;;3.23;;
6566;SDS011;3317;43.994;22.878;2023-07-29T01:21:07;5.33;;;3.63;;
6566;SDS011;3317;43.994;22.878;2023-07-29T01:23:37;4.40;;;3.10;;
6566;SDS011;3317;43.994;22.878;2023-07-29T01:26:04;5.17;;;3.20;;
6566;SDS011;3317;43.994;22.878;2023-07-29T01:28:31;4.07;;;3.33;;
6566;SDS011;3317;43.994;22.878;2023-07-29T01:31:10;5.63;;;3.80;;
6566;SDS011;3317;43.994;22.878;2023-07-29T01:33:40;4.07;;;3.63;;
6566;SDS011;3317;43.994;22.878;2023-07-29T01:36:15;3.60;;;3.20;;
6566;SDS011;3317;43.994;22.878;2023-07-29T01:38:50;4.20;;;3.30;;
6566;SDS011;3317;43.994;22.878;2023-07-29T01:41:19;4.80;;;4.23;;
6566;SDS011;3317;43.994;22.878;2023-07-29T01:43:47;5.40;;;3.30;;
6566;SDS011;3317;43.994;22.878;2023-07-29T01:46:14;5.00;;;3.67;;
6566;SDS011;3317;43.994;22.878;2023-07-29T01:48:42;4.50;;;3.67;;
6566;SDS011;3317;43.994;22.878;2023-07-29T01:51:10;3.90;;;3.17;;
6566;SDS011;3317;43.994;22.878;2023-07-29T01:53:38;5.63;;;3.43;;
6566;SDS011;3317;43.994;22.878;2023-07-29T01:56:06;4.23;;;3.60;;
6566;SDS011;3317;43.994;22.878;2023-07-29T01:58:33;4.17;;;3.50;;
6566;SDS011;3317;43.994;22.878;2023-07-29T02:01:00;6.83;;;3.23;;
6566;SDS011;3317;43.994;22.878;2023-07-29T02:03:27;3.77;;;3.20;;
6566;SDS011;3317;43.994;22.878;2023-07-29T02:05:54;4.97;;;3.70;;
6566;SDS011;3317;43.994;22.878;2023-07-29T02:08:21;4.70;;;3.80;;
6566;SDS011;3317;43.994;22.878;2023-07-29T02:10:48;3.80;;;3.20;;
6566;SDS011;3317;43.994;22.878;2023-07-29T02:13:16;5.73;;;3.93;;
6566;SDS011;3317;43.994;22.878;2023-07-29T02:15:43;5.93;;;3.73;;
6566;SDS011;3317;43.994;22.878;2023-07-29T02:18:10;4.80;;;4.00;;
6566;SDS011;3317;43.994;22.878;2023-07-29T02:20:37;3.87;;;3.40;;
6566;SDS011;3317;43.994;22.878;2023-07-29T02:23:04;6.53;;;3.67;;
6566;SDS011;3317;43.994;22.878;2023-07-29T02:25:31;4.20;;;3.43;;
6566;SDS011;3317;43.994;22.878;2023-07-29T02:28:01;3.70;;;3.30;;
6566;SDS011;3317;43.994;22.878;2023-07-29T02:30:30;7.30;;;4.07;;
6566;SDS011;3317;43.994;22.878;2023-07-29T02:32:57;5.90;;;4.13;;
6566;SDS011;3317;43.994;22.878;2023-07-29T02:35:26;4.90;;;3.47;;
6566;SDS011;3317;43.994;22.878;2023-07-29T02:37:53;4.23;;;3.43;;
6566;SDS011;3317;43.994;22.878;2023-07-29T02:40:20;4.33;;;3.43;;
6566;SDS011;3317;43.994;22.878;2023-07-29T02:42:48;4.53;;;3.73;;
6566;SDS011;3317;43.994;22.878;2023-07-29T02:45:15;4.53;;;3.90;;
6566;SDS011;3317;43.994;22.878;2023-07-29T02:47:43;4.30;;;3.63;;
6566;SDS011;3317;43.994;22.878;2023-07-29T02:50:10;5.33;;;3.60;;
6566;SDS011;3317;43.994;22.878;2023-07-29T02:52:37;6.90;;;4.10;;
6566;SDS011;3317;43.994;22.878;2023-07-29T02:55:04;6.50;;;4.57;;
6566;SDS011;3317;43.994;22.878;2023-07-29T02:57:32;6.23;;;3.90;;
6566;SDS011;3317;43.994;22.878;2023-07-29T02:59:59;8.27;;;5.10;;
6566;SDS011;3317;43.994;22.878;2023-07-29T03:02:25;5.97;;;5.00;;
6566;SDS011;3317;43.994;22.878;2023-07-29T03:04:54;4.87;;;4.37;;
6566;SDS011;3317;43.994;22.878;2023-07-29T03:07:21;5.40;;;4.10;;
6566;SDS011;3317;43.994;22.878;2023-07-29T03:09:48;7.23;;;3.80;;
6566;SDS011;3317;43.994;22.878;2023-07-29T03:12:15;4.93;;;3.90;;
6566;SDS011;3317;43.994;22.878;2023-07-29T03:14:41;5.87;;;4.60;;
6566;SDS011;3317;43.994;22.878;2023-07-29T03:17:08;5.13;;;4.57;;
6566;SDS011;3317;43.994;22.878;2023-07-29T03:19:35;8.23;;;6.00;;
6566;SDS011;3317;43.994;22.878;2023-07-29T03:22:04;6.33;;;5.67;;
6566;SDS011;3317;43.994;22.878;2023-07-29T03:24:30;11.70;;;6.50;;
6566;SDS011;3317;43.994;22.878;2023-07-29T03:26:57;9.60;;;7.57;;
6566;SDS011;3317;43.994;22.878;2023-07-29T03:29:24;10.63;;;7.57;;
6566;SDS011;3317;43.994;22.878;2023-07-29T03:31:51;10.57;;;7.17;;
6566;SDS011;3317;43.994;22.878;2023-07-29T03:34:18;9.83;;;5.37;;
6566;SDS011;3317;43.994;22.878;2023-07-29T03:36:45;8.10;;;4.90;;
6566;SDS011;3317;43.994;22.878;2023-07-29T03:39:14;6.13;;;4.67;;
6566;SDS011;3317;43.994;22.878;2023-07-29T03:41:42;7.70;;;5.10;;
6566;SDS011;3317;43.994;22.878;2023-07-29T03:44:09;9.17;;;6.20;;
6566;SDS011;3317;43.994;22.878;2023-07-29T03:46:35;11.83;;;7.80;;
6566;SDS011;3317;43.994;22.878;2023-07-29T03:49:02;8.57;;;5.90;;
6566;SDS011;3317;43.994;22.878;2023-07-29T03:51:29;9.13;;;4.73;;
6566;SDS011;3317;43.994;22.878;2023-07-29T03:53:56;5.23;;;4.17;;
6566;SDS011;3317;43.994;22.878;2023-07-29T03:56:25;7.30;;;4.30;;
6566;SDS011;3317;43.994;22.878;2023-07-29T03:58:52;8.10;;;4.23;;
6566;SDS011;3317;43.994;22.878;2023-07-29T04:01:19;7.27;;;4.40;;
6566;SDS011;3317;43.994;22.878;2023-07-29T04:03:46;5.73;;;4.13;;
6566;SDS011;3317;43.994;22.878;2023-07-29T04:06:13;8.83;;;4.30;;
6566;SDS011;3317;43.994;22.878;2023-07-29T04:08:40;5.53;;;4.30;;
6566;SDS011;3317;43.994;22.878;2023-07-29T04:11:07;5.50;;;4.10;;
6566;SDS011;3317;43.994;22.878;2023-07-29T04:13:36;10.67;;;4.30;;
6566;SDS011;3317;43.994;22.878;2023-07-29T04:16:03;9.50;;;5.10;;
6566;SDS011;3317;43.994;22.878;2023-07-29T04:18:30;6.50;;;4.20;;
6566;SDS011;3317;43.994;22.878;2023-07-29T04:20:57;8.73;;;4.50;;
6566;SDS011;3317;43.994;22.878;2023-07-29T04:23:24;8.50;;;4.80;;
6566;SDS011;3317;43.994;22.878;2023-07-29T04:25:51;8.60;;;4.40;;
6566;SDS011;3317;43.994;22.878;2023-07-29T04:28:18;6.77;;;5.30;;
6566;SDS011;3317;43.994;22.878;2023-07-29T04:30:47;9.33;;;5.13;;
6566;SDS011;3317;43.994;22.878;2023-07-29T04:33:14;8.40;;;5.13;;
6566;SDS011;3317;43.994;22.878;2023-07-29T04:35:41;6.10;;;4.67;;
6566;SDS011;3317;43.994;22.878;2023-07-29T04:38:08;6.53;;;4.50;;
6566;SDS011;3317;43.994;22.878;2023-07-29T04:40:35;7.30;;;4.20;;
6566;SDS011;3317;43.994;22.878;2023-07-29T04:43:02;7.30;;;4.70;;
6566;SDS011;3317;43.994;22.878;2023-07-29T04:45:28;6.47;;;4.90;;
6566;SDS011;3317;43.994;22.878;2023-07-29T04:47:57;7.30;;;5.40;;
6566;SDS011;3317;43.994;22.878;2023-07-29T04:50:24;8.03;;;5.67;;
6566;SDS011;3317;43.994;22.878;2023-07-29T04:52:51;5.30;;;4.80;;
6566;SDS011;3317;43.994;22.878;2023-07-29T04:55:19;6.63;;;4.53;;
6566;SDS011;3317;43.994;22.878;2023-07-29T04:57:46;7.00;;;4.23;;
6566;SDS011;3317;43.994;22.878;2023-07-29T05:00:12;7.13;;;4.37;;
6566;SDS011;3317;43.994;22.878;2023-07-29T05:02:40;19.37;;;5.70;;
6566;SDS011;3317;43.994;22.878;2023-07-29T05:05:08;4.43;;;4.03;;
6566;SDS011;3317;43.994;22.878;2023-07-29T05:07:35;7.50;;;4.13;;
6566;SDS011;3317;43.994;22.878;2023-07-29T05:10:03;6.30;;;4.80;;
6566;SDS011;3317;43.994;22.878;2023-07-29T05:12:30;9.00;;;5.20;;
6566;SDS011;3317;43.994;22.878;2023-07-29T05:14:57;6.10;;;4.40;;
6566;SDS011;3317;43.994;22.878;2023-07-29T05:17:25;6.33;;;4.27;;
6566;SDS011;3317;43.994;22.878;2023-07-29T05:19:52;6.07;;;4.80;;
6566;SDS011;3317;43.994;22.878;2023-07-29T05:22:20;8.67;;;5.40;;
6566;SDS011;3317;43.994;22.878;2023-07-29T05:24:47;7.83;;;4.77;;
6566;SDS011;3317;43.994;22.878;2023-07-29T05:27:14;4.63;;;3.70;;
6566;SDS011;3317;43.994;22.878;2023-07-29T05:29:41;6.60;;;4.40;;
6566;SDS011;3317;43.994;22.878;2023-07-29T05:32:08;5.33;;;4.13;;
6566;SDS011;3317;43.994;22.878;2023-07-29T05:34:35;5.33;;;3.97;;
6566;SDS011;3317;43.994;22.878;2023-07-29T05:37:02;5.33;;;3.70;;
6566;SDS011;3317;43.994;22.878;2023-07-29T05:39:31;7.70;;;3.50;;
6566;SDS011;3317;43.994;22.878;2023-07-29T05:41:58;6.10;;;4.20;;
6566;SDS011;3317;43.994;22.878;2023-07-29T05:44:27;7.73;;;4.30;;
6566;SDS011;3317;43.994;22.878;2023-07-29T05:46:55;4.93;;;3.87;;
6566;SDS011;3317;43.994;22.878;2023-07-29T05:49:23;5.87;;;4.20;;
6566;SDS011;3317;43.994;22.878;2023-07-29T05:51:49;6.37;;;4.43;;
6566;SDS011;3317;43.994;22.878;2023-07-29T05:54:18;8.50;;;5.50;;
6566;SDS011;3317;43.994;22.878;2023-07-29T05:56:47;8.90;;;5.57;;
6566;SDS011;3317;43.994;22.878;2023-07-29T05:59:14;9.00;;;4.73;;
6566;SDS011;3317;43.994;22.878;2023-07-29T06:01:41;7.00;;;4.63;;
6566;SDS011;3317;43.994;22.878;2023-07-29T06:04:07;5.30;;;4.10;;
6566;SDS011;3317;43.994;22.878;2023-07-29T06:06:34;7.80;;;4.53;;
6566;SDS011;3317;43.994;22.878;2023-07-29T06:09:01;7.00;;;4.93;;
6566;SDS011;3317;43.994;22.878;2023-07-29T06:11:28;5.23;;;4.17;;
6566;SDS011;3317;43.994;22.878;2023-07-29T06:13:56;10.90;;;5.30;;
6566;SDS011;3317;43.994;22.878;2023-07-29T06:16:23;6.70;;;4.27;;
6566;SDS011;3317;43.994;22.878;2023-07-29T06:18:49;5.23;;;4.07;;
6566;SDS011;3317;43.994;22.878;2023-07-29T06:21:17;6.43;;;4.03;;
6566;SDS011;3317;43.994;22.878;2023-07-29T06:23:45;5.80;;;4.43;;
6566;SDS011;3317;43.994;22.878;2023-07-29T06:26:12;4.30;;;3.70;;
6566;SDS011;3317;43.994;22.878;2023-07-29T06:28:39;7.93;;;4.37;;
6566;SDS011;3317;43.994;22.878;2023-07-29T06:31:07;7.50;;;4.23;;
6566;SDS011;3317;43.994;22.878;2023-07-29T06:33:34;6.90;;;4.40;;
6566;SDS011;3317;43.994;22.878;2023-07-29T06:36:01;6.87;;;4.23;;
6566;SDS011;3317;43.994;22.878;2023-07-29T06:38:28;6.90;;;4.53;;
6566;SDS011;3317;43.994;22.878;2023-07-29T06:40:55;8.30;;;4.10;;
6566;SDS011;3317;43.994;22.878;2023-07-29T06:43:22;5.70;;;4.33;;
6566;SDS011;3317;43.994;22.878;2023-07-29T06:45:49;6.53;;;4.13;;
6566;SDS011;3317;43.994;22.878;2023-07-29T06:48:18;4.70;;;3.70;;
6566;SDS011;3317;43.994;22.878;2023-07-29T06:50:45;5.50;;;4.13;;
6566;SDS011;3317;43.994;22.878;2023-07-29T06:53:12;5.40;;;4.13;;
6566;SDS011;3317;43.994;22.878;2023-07-29T06:55:39;7.20;;;5.07;;
6566;SDS011;3317;43.994;22.878;2023-07-29T06:58:06;5.80;;;4.37;;
6566;SDS011;3317;43.994;22.878;2023-07-29T07:00:33;6.50;;;4.30;;
6566;SDS011;3317;43.994;22.878;2023-07-29T07:03:00;6.13;;;3.60;;
6566;SDS011;3317;43.994;22.878;2023-07-29T07:05:29;7.73;;;4.17;;
6566;SDS011;3317;43.994;22.878;2023-07-29T07:07:55;16.93;;;4.90;;
6566;SDS011;3317;43.994;22.878;2023-07-29T07:10:22;11.83;;;5.00;;
6566;SDS011;3317;43.994;22.878;2023-07-29T07:12:49;6.20;;;4.70;;
6566;SDS011;3317;43.994;22.878;2023-07-29T07:15:16;5.00;;;4.27;;
6566;SDS011;3317;43.994;22.878;2023-07-29T07:17:43;5.47;;;4.23;;
6566;SDS011;3317;43.994;22.878;2023-07-29T07:20:11;5.80;;;4.23;;
6566;SDS011;3317;43.994;22.878;2023-07-29T07:22:39;4.53;;;4.13;;
6566;SDS011;3317;43.994;22.878;2023-07-29T07:25:06;4.70;;;3.50;;
6566;SDS011;3317;43.994;22.878;2023-07-29T07:27:34;5.00;;;3.60;;
6566;SDS011;3317;43.994;22.878;2023-07-29T07:30:03;4.20;;;3.80;;
6566;SDS011;3317;43.994;22.878;2023-07-29T07:32:30;8.30;;;4.50;;
6566;SDS011;3317;43.994;22.878;2023-07-29T07:34:57;4.87;;;4.10;;
6566;SDS011;3317;43.994;22.878;2023-07-29T07:37:24;8.73;;;4.23;;
6566;SDS011;3317;43.994;22.878;2023-07-29T07:39:52;5.10;;;3.53;;
6566;SDS011;3317;43.994;22.878;2023-07-29T07:42:19;9.07;;;3.83;;
6566;SDS011;3317;43.994;22.878;2023-07-29T07:44:46;7.73;;;5.03;;
6566;SDS011;3317;43.994;22.878;2023-07-29T07:47:12;6.40;;;4.13;;
6566;SDS011;3317;43.994;22.878;2023-07-29T07:49:39;5.10;;;4.40;;
6566;SDS011;3317;43.994;22.878;2023-07-29T07:52:06;12.93;;;4.80;;
6566;SDS011;3317;43.994;22.878;2023-07-29T07:54:33;6.87;;;4.10;;
6566;SDS011;3317;43.994;22.878;2023-07-29T07:57:02;4.97;;;4.33;;
6566;SDS011;3317;43.994;22.878;2023-07-29T07:59:29;7.47;;;4.37;;
6566;SDS011;3317;43.994;22.878;2023-07-29T08:01:56;5.23;;;4.23;;
6566;SDS011;3317;43.994;22.878;2023-07-29T08:04:23;6.87;;;4.60;;
6566;SDS011;3317;43.994;22.878;2023-07-29T08:06:50;7.37;;;4.83;;
6566;SDS011;3317;43.994;22.878;2023-07-29T08:09:17;5.87;;;3.83;;
6566;SDS011;3317;43.994;22.878;2023-07-29T08:11:43;5.77;;;4.17;;
6566;SDS011;3317;43.994;22.878;2023-07-29T08:14:12;5.80;;;4.33;;
6566;SDS011;3317;43.994;22.878;2023-07-29T08:16:39;6.43;;;4.30;;
6566;SDS011;3317;43.994;22.878;2023-07-29T08:19:06;3.87;;;3.47;;
6566;SDS011;3317;43.994;22.878;2023-07-29T08:21:35;6.23;;;3.83;;
6566;SDS011;3317;43.994;22.878;2023-07-29T08:24:02;6.37;;;3.97;;
6566;SDS011;3317;43.994;22.878;2023-07-29T08:26:29;7.47;;;5.00;;
6566;SDS011;3317;43.994;22.878;2023-07-29T08:28:55;6.17;;;3.97;;
6566;SDS011;3317;43.994;22.878;2023-07-29T08:31:24;4.40;;;4.00;;
6566;SDS011;3317;43.994;22.878;2023-07-29T08:33:51;5.57;;;4.87;;
6566;SDS011;3317;43.994;22.878;2023-07-29T08:36:18;6.00;;;4.40;;
6566;SDS011;3317;43.994;22.878;2023-07-29T08:38:45;5.80;;;4.30;;
6566;SDS011;3317;43.994;22.878;2023-07-29T08:41:13;4.40;;;4.00;;
6566;SDS011;3317;43.994;22.878;2023-07-29T08:43:43;4.17;;;3.43;;
6566;SDS011;3317;43.994;22.878;2023-07-29T08:46:16;5.60;;;3.70;;
6566;SDS011;3317;43.994;22.878;2023-07-29T08:48:46;3.63;;;3.30;;
6566;SDS011;3317;43.994;22.878;2023-07-29T08:51:14;5.07;;;3.83;;
6566;SDS011;3317;43.994;22.878;2023-07-29T08:53:42;7.40;;;3.33;;
6566;SDS011;3317;43.994;22.878;2023-07-29T08:56:09;7.13;;;3.63;;
6566;SDS011;3317;43.994;22.878;2023-07-29T08:58:36;6.90;;;3.40;;
6566;SDS011;3317;43.994;22.878;2023-07-29T09:01:05;4.40;;;3.13;;
6566;SDS011;3317;43.994;22.878;2023-07-29T09:03:33;5.00;;;3.60;;
6566;SDS011;3317;43.994;22.878;2023-07-29T09:06:01;3.93;;;3.20;;
6566;SDS011;3317;43.994;22.878;2023-07-29T09:08:29;3.60;;;3.20;;
6566;SDS011;3317;43.994;22.878;2023-07-29T09:10:56;3.50;;;3.20;;
6566;SDS011;3317;43.994;22.878;2023-07-29T09:13:23;5.17;;;3.30;;
6566;SDS011;3317;43.994;22.878;2023-07-29T09:15:53;6.23;;;3.67;;
6566;SDS011;3317;43.994;22.878;2023-07-29T09:18:21;4.37;;;3.37;;
6566;SDS011;3317;43.994;22.878;2023-07-29T09:20:48;3.10;;;2.80;;
6566;SDS011;3317;43.994;22.878;2023-07-29T09:23:18;3.37;;;3.07;;
6566;SDS011;3317;43.994;22.878;2023-07-29T09:25:46;9.47;;;2.90;;
6566;SDS011;3317;43.994;22.878;2023-07-29T09:28:14;3.70;;;2.67;;
6566;SDS011;3317;43.994;22.878;2023-07-29T09:30:42;5.00;;;2.93;;
6566;SDS011;3317;43.994;22.878;2023-07-29T09:33:11;2.63;;;2.40;;
6566;SDS011;3317;43.994;22.878;2023-07-29T09:35:38;3.37;;;2.40;;
6566;SDS011;3317;43.994;22.878;2023-07-29T09:38:05;3.10;;;2.63;;
6566;SDS011;3317;43.994;22.878;2023-07-29T09:40:38;4.30;;;2.90;;
6566;SDS011;3317;43.994;22.878;2023-07-29T09:43:06;3.20;;;2.90;;
6566;SDS011;3317;43.994;22.878;2023-07-29T09:45:36;5.70;;;2.83;;
6566;SDS011;3317;43.994;22.878;2023-07-29T09:48:04;2.70;;;2.50;;
6566;SDS011;3317;43.994;22.878;2023-07-29T09:50:34;3.17;;;2.57;;
6566;SDS011;3317;43.994;22.878;2023-07-29T09:53:02;3.30;;;2.43;;
6566;SDS011;3317;43.994;22.878;2023-07-29T09:55:30;4.43;;;2.80;;
6566;SDS011;3317;43.994;22.878;2023-07-29T09:58:01;4.87;;;2.87;;
6566;SDS011;3317;43.994;22.878;2023-07-29T10:00:32;4.23;;;3.20;;
6566;SDS011;3317;43.994;22.878;2023-07-29T10:02:59;2.80;;;2.60;;
6566;SDS011;3317;43.994;22.878;2023-07-29T10:05:27;3.40;;;2.80;;
6566;SDS011;3317;43.994;22.878;2023-07-29T10:07:56;3.77;;;2.50;;
6566;SDS011;3317;43.994;22.878;2023-07-29T10:10:23;3.03;;;2.67;;
6566;SDS011;3317;43.994;22.878;2023-07-29T10:12:50;5.50;;;3.13;;
6566;SDS011;3317;43.994;22.878;2023-07-29T10:15:19;4.70;;;2.70;;
6566;SDS011;3317;43.994;22.878;2023-07-29T10:17:47;4.13;;;2.50;;
6566;SDS011;3317;43.994;22.878;2023-07-29T10:20:16;5.40;;;2.80;;
6566;SDS011;3317;43.994;22.878;2023-07-29T10:22:43;2.80;;;2.50;;
6566;SDS011;3317;43.994;22.878;2023-07-29T10:25:13;4.03;;;2.33;;
6566;SDS011;3317;43.994;22.878;2023-07-29T10:27:43;3.23;;;2.97;;
6566;SDS011;3317;43.994;22.878;2023-07-29T10:30:13;3.60;;;2.83;;
6566;SDS011;3317;43.994;22.878;2023-07-29T10:32:43;4.27;;;2.60;;
6566;SDS011;3317;43.994;22.878;2023-07-29T10:35:11;4.53;;;2.50;;
6566;SDS011;3317;43.994;22.878;2023-07-29T10:37:39;5.23;;;2.70;;
6566;SDS011;3317;43.994;22.878;2023-07-29T10:40:07;3.30;;;2.73;;
6566;SDS011;3317;43.994;22.878;2023-07-29T10:42:36;5.43;;;2.73;;
6566;SDS011;3317;43.994;22.878;2023-07-29T10:45:17;3.33;;;2.93;;
6566;SDS011;3317;43.994;22.878;2023-07-29T10:47:47;3.00;;;2.70;;
6566;SDS011;3317;43.994;22.878;2023-07-29T10:50:17;3.47;;;3.17;;
6566;SDS011;3317;43.994;22.878;2023-07-29T10:52:49;3.90;;;2.30;;
6566;SDS011;3317;43.994;22.878;2023-07-29T10:55:27;2.80;;;2.60;;
6566;SDS011;3317;43.994;22.878;2023-07-29T10:58:05;2.53;;;2.33;;
6566;SDS011;3317;43.994;22.878;2023-07-29T11:00:34;4.33;;;2.80;;
6566;SDS011;3317;43.994;22.878;2023-07-29T11:03:04;3.23;;;2.70;;
6566;SDS011;3317;43.994;22.878;2023-07-29T11:05:48;4.03;;;2.80;;
6566;SDS011;3317;43.994;22.878;2023-07-29T11:08:17;2.60;;;2.17;;
6566;SDS011;3317;43.994;22.878;2023-07-29T11:10:44;6.63;;;2.50;;
6566;SDS011;3317;43.994;22.878;2023-07-29T11:13:25;3.33;;;2.47;;
6566;SDS011;3317;43.994;22.878;2023-07-29T11:15:53;2.60;;;2.40;;
6566;SDS011;3317;43.994;22.878;2023-07-29T11:18:22;2.87;;;2.50;;
6566;SDS011;3317;43.994;22.878;2023-07-29T11:20:53;2.53;;;2.33;;
6566;SDS011;3317;43.994;22.878;2023-07-29T11:23:21;2.70;;;2.50;;
6566;SDS011;3317;43.994;22.878;2023-07-29T11:25:54;2.77;;;2.57;;
6566;SDS011;3317;43.994;22.878;2023-07-29T11:28:21;2.97;;;2.47;;
6566;SDS011;3317;43.994;22.878;2023-07-29T11:30:49;2.53;;;2.20;;
6566;SDS011;3317;43.994;22.878;2023-07-29T11:33:17;2.40;;;2.20;;
6566;SDS011;3317;43.994;22.878;2023-07-29T11:35:46;3.33;;;2.20;;
6566;SDS011;3317;43.994;22.878;2023-07-29T11:38:14;3.27;;;2.47;;
6566;SDS011;3317;43.994;22.878;2023-07-29T11:40:42;2.20;;;2.00;;
6566;SDS011;3317;43.994;22.878;2023-07-29T11:43:09;2.20;;;2.00;;
6566;SDS011;3317;43.994;22.878;2023-07-29T11:45:44;2.47;;;2.10;;
6566;SDS011;3317;43.994;22.878;2023-07-29T11:48:11;2.90;;;2.07;;
6566;SDS011;3317;43.994;22.878;2023-07-29T11:50:38;2.00;;;1.80;;
6566;SDS011;3317;43.994;22.878;2023-07-29T11:53:07;2.10;;;1.90;;
6566;SDS011;3317;43.994;22.878;2023-07-29T11:55:34;2.40;;;2.20;;
6566;SDS011;3317;43.994;22.878;2023-07-29T11:58:01;2.50;;;2.30;;
6566;SDS011;3317;43.994;22.878;2023-07-29T12:00:28;2.43;;;2.07;;
6566;SDS011;3317;43.994;22.878;2023-07-29T12:02:55;3.70;;;2.60;;
6566;SDS011;3317;43.994;22.878;2023-07-29T12:05:23;5.40;;;2.80;;
6566;SDS011;3317;43.994;22.878;2023-07-29T12:07:51;2.20;;;2.00;;
6566;SDS011;3317;43.994;22.878;2023-07-29T12:10:19;2.20;;;2.00;;
6566;SDS011;3317;43.994;22.878;2023-07-29T12:12:47;2.37;;;1.93;;
6566;SDS011;3317;43.994;22.878;2023-07-29T12:15:22;2.97;;;2.23;;
6566;SDS011;3317;43.994;22.878;2023-07-29T12:17:52;2.20;;;2.00;;
6566;SDS011;3317;43.994;22.878;2023-07-29T12:20:21;2.77;;;2.47;;
6566;SDS011;3317;43.994;22.878;2023-07-29T12:22:52;3.17;;;2.87;;
6566;SDS011;3317;43.994;22.878;2023-07-29T12:25:21;2.40;;;2.20;;
6566;SDS011;3317;43.994;22.878;2023-07-29T12:27:48;2.63;;;2.43;;
6566;SDS011;3317;43.994;22.878;2023-07-29T12:30:15;2.37;;;1.97;;
6566;SDS011;3317;43.994;22.878;2023-07-29T12:32:43;2.90;;;2.60;;
6566;SDS011;3317;43.994;22.878;2023-07-29T12:35:11;2.20;;;2.00;;
6566;SDS011;3317;43.994;22.878;2023-07-29T12:37:38;2.13;;;1.90;;
6566;SDS011;3317;43.994;22.878;2023-07-29T12:40:08;2.57;;;1.70;;
6566;SDS011;3317;43.994;22.878;2023-07-29T12:42:48;2.13;;;1.93;;
6566;SDS011;3317;43.994;22.878;2023-07-29T12:45:15;3.50;;;2.53;;
6566;SDS011;3317;43.994;22.878;2023-07-29T12:47:43;2.13;;;1.93;;
6566;SDS011;3317;43.994;22.878;2023-07-29T12:50:10;2.83;;;1.83;;
6566;SDS011;3317;43.994;22.878;2023-07-29T12:52:37;2.20;;;2.00;;
6566;SDS011;3317;43.994;22.878;2023-07-29T12:55:04;2.10;;;1.90;;
6566;SDS011;3317;43.994;22.878;2023-07-29T12:57:35;2.23;;;2.00;;
6566;SDS011;3317;43.994;22.878;2023-07-29T13:00:02;2.40;;;2.20;;
6566;SDS011;3317;43.994;22.878;2023-07-29T13:02:30;3.10;;;2.60;;
6566;SDS011;3317;43.994;22.878;2023-07-29T13:04:57;2.90;;;2.20;;
6566;SDS011;3317;43.994;22.878;2023-07-29T13:07:24;2.07;;;1.87;;
6566;SDS011;3317;43.994;22.878;2023-07-29T13:09:51;2.00;;;1.90;;
6566;SDS011;3317;43.994;22.878;2023-07-29T13:12:18;2.30;;;2.10;;
6566;SDS011;3317;43.994;22.878;2023-07-29T13:14:46;3.20;;;2.00;;
6566;SDS011;3317;43.994;22.878;2023-07-29T13:17:13;2.83;;;2.07;;
6566;SDS011;3317;43.994;22.878;2023-07-29T13:19:40;3.03;;;2.30;;
6566;SDS011;3317;43.994;22.878;2023-07-29T13:22:07;3.17;;;2.07;;
6566;SDS011;3317;43.994;22.878;2023-07-29T13:24:34;2.53;;;2.30;;
6566;SDS011;3317;43.994;22.878;2023-07-29T13:27:01;2.67;;;2.30;;
6566;SDS011;3317;43.994;22.878;2023-07-29T13:29:28;2.60;;;2.40;;
6566;SDS011;3317;43.994;22.878;2023-07-29T13:31:56;2.60;;;2.10;;
6566;SDS011;3317;43.994;22.878;2023-07-29T13:34:23;2.23;;;2.03;;
6566;SDS011;3317;43.994;22.878;2023-07-29T13:36:50;2.57;;;2.37;;
6566;SDS011;3317;43.994;22.878;2023-07-29T13:39:17;3.80;;;2.47;;
6566;SDS011;3317;43.994;22.878;2023-07-29T13:41:44;2.80;;;2.50;;
6566;SDS011;3317;43.994;22.878;2023-07-29T13:44:11;2.60;;;2.03;;
6566;SDS011;3317;43.994;22.878;2023-07-29T13:46:38;2.27;;;2.03;;
6566;SDS011;3317;43.994;22.878;2023-07-29T13:49:06;3.43;;;1.90;;
6566;SDS011;3317;43.994;22.878;2023-07-29T13:51:33;3.03;;;2.10;;
6566;SDS011;3317;43.994;22.878;2023-07-29T13:54:00;2.57;;;2.27;;
6566;SDS011;3317;43.994;22.878;2023-07-29T13:56:27;3.63;;;2.30;;
6566;SDS011;3317;43.994;22.878;2023-07-29T13:58:53;3.67;;;2.40;;
6566;SDS011;3317;43.994;22.878;2023-07-29T14:01:20;3.23;;;2.20;;
6566;SDS011;3317;43.994;22.878;2023-07-29T14:03:47;3.43;;;2.20;;
6566;SDS011;3317;43.994;22.878;2023-07-29T14:06:16;3.10;;;2.37;;
6566;SDS011;3317;43.994;22.878;2023-07-29T14:08:43;4.17;;;2.17;;
6566;SDS011;3317;43.994;22.878;2023-07-29T14:11:10;2.50;;;2.20;;
6566;SDS011;3317;43.994;22.878;2023-07-29T14:13:37;3.50;;;2.30;;
6566;SDS011;3317;43.994;22.878;2023-07-29T14:16:04;3.50;;;2.40;;
6566;SDS011;3317;43.994;22.878;2023-07-29T14:18:31;2.50;;;2.30;;
6566;SDS011;3317;43.994;22.878;2023-07-29T14:20:58;2.50;;;2.30;;
6566;SDS011;3317;43.994;22.878;2023-07-29T14:23:27;3.30;;;2.43;;
6566;SDS011;3317;43.994;22.878;2023-07-29T14:25:55;5.80;;;2.27;;
6566;SDS011;3317;43.994;22.878;2023-07-29T14:28:22;2.73;;;2.50;;
6566;SDS011;3317;43.994;22.878;2023-07-29T14:30:49;3.70;;;2.20;;
6566;SDS011;3317;43.994;22.878;2023-07-29T14:33:16;2.17;;;1.97;;
6566;SDS011;3317;43.994;22.878;2023-07-29T14:35:43;3.07;;;2.30;;
6566;SDS011;3317;43.994;22.878;2023-07-29T14:38:10;2.57;;;2.20;;
6566;SDS011;3317;43.994;22.878;2023-07-29T14:40:38;2.20;;;1.90;;
6566;SDS011;3317;43.994;22.878;2023-07-29T14:43:05;3.43;;;2.20;;
6566;SDS011;3317;43.994;22.878;2023-07-29T14:45:32;3.20;;;2.40;;
6566;SDS011;3317;43.994;22.878;2023-07-29T14:47:58;3.73;;;2.60;;
6566;SDS011;3317;43.994;22.878;2023-07-29T14:50:25;4.20;;;2.80;;
6566;SDS011;3317;43.994;22.878;2023-07-29T14:52:52;2.63;;;2.23;;
6566;SDS011;3317;43.994;22.878;2023-07-29T14:55:19;2.83;;;2.57;;
6566;SDS011;3317;43.994;22.878;2023-07-29T14:57:48;2.80;;;2.30;;
6566;SDS011;3317;43.994;22.878;2023-07-29T15:00:15;3.00;;;2.27;;
6566;SDS011;3317;43.994;22.878;2023-07-29T15:02:42;3.10;;;2.33;;
6566;SDS011;3317;43.994;22.878;2023-07-29T15:05:09;3.40;;;2.77;;